createdAt,value
2018-08-06T00:00:13.849Z,26.70
2018-08-06T00:05:11.025Z,26.70
2018-08-06T00:10:11.465Z,26.80
2018-08-06T00:15:10.275Z,27.00
2018-08-06T00:17:39.461Z,27.00
2018-08-06T00:20:09.397Z,27.00
2018-08-06T00:22:38.689Z,27.00
2018-08-06T00:25:08.465Z,27.10
2018-08-06T00:27:37.206Z,27.10
2018-08-06T00:30:08.358Z,27.10
2018-08-06T00:32:37.504Z,27.10
2018-08-06T00:35:06.589Z,27.10
2018-08-06T00:37:35.456Z,27.10
2018-08-06T00:40:04.192Z,27.20
2018-08-06T00:45:01.889Z,27.30
2018-08-06T00:47:30.748Z,27.30
2018-08-06T00:50:00.970Z,27.40
2018-08-06T00:52:30.434Z,27.20
2018-08-06T00:54:59.823Z,27.00
2018-08-06T00:57:28.564Z,26.90
2018-08-06T00:59:57.421Z,26.90
2018-08-06T01:02:30.993Z,26.90
2018-08-06T01:04:59.739Z,26.90
2018-08-06T01:07:28.414Z,26.80
2018-08-06T01:09:57.121Z,26.60
2018-08-06T01:12:30.509Z,26.70
2018-08-06T01:14:59.189Z,26.70
2018-08-06T01:17:27.905Z,26.70
2018-08-06T01:19:56.667Z,26.60
2018-08-06T01:22:26.377Z,26.70
2018-08-06T01:24:55.041Z,26.50
2018-08-06T01:27:23.912Z,26.50
2018-08-06T01:32:21.056Z,26.30
2018-08-06T01:34:49.718Z,26.10
2018-08-06T01:37:18.501Z,26.10
2018-08-06T01:39:47.131Z,26.00
2018-08-06T01:42:15.874Z,26.10
2018-08-06T01:44:44.569Z,26.20
2018-08-06T01:47:13.288Z,26.20
2018-08-06T01:49:42.027Z,26.10
2018-08-06T01:52:11.596Z,26.10
2018-08-06T01:57:09.402Z,26.30
2018-08-06T01:59:38.182Z,26.30
2018-08-06T02:02:07.315Z,26.50
2018-08-06T02:04:36.065Z,26.60
2018-08-06T02:07:04.793Z,26.60
2018-08-06T02:09:33.638Z,26.50
2018-08-06T02:12:03.468Z,26.50
2018-08-06T02:14:32.117Z,26.10
2018-08-06T02:17:00.829Z,26.10
2018-08-06T02:19:29.584Z,26.10
2018-08-06T02:26:55.424Z,26.10
2018-08-06T02:29:24.776Z,26.10
2018-08-06T02:31:53.905Z,26.10
2018-08-06T02:34:22.593Z,26.10
2018-08-06T02:36:51.321Z,26.20
2018-08-06T02:39:20.137Z,26.30
2018-08-06T02:41:48.930Z,26.30
2018-08-06T02:44:17.740Z,26.40
2018-08-06T02:49:14.959Z,26.50
2018-08-06T02:54:12.311Z,26.60
2018-08-06T02:56:41.236Z,26.60
2018-08-06T02:59:10.285Z,26.60
2018-08-06T03:01:39.159Z,26.50
2018-08-06T03:04:08.735Z,26.60
2018-08-06T03:06:38.307Z,26.60
2018-08-06T03:09:10.090Z,26.60
2018-08-06T03:14:09.577Z,26.60
2018-08-06T03:16:39.312Z,26.60
2018-08-06T03:19:09.033Z,26.60
2018-08-06T03:21:38.527Z,26.40
2018-08-06T03:24:08.610Z,26.50
2018-08-06T03:26:37.273Z,26.40
2018-08-06T03:29:06.078Z,26.30
2018-08-06T03:31:34.814Z,26.20
2018-08-06T03:34:03.497Z,26.20
2018-08-06T03:36:32.225Z,26.10
2018-08-06T03:39:00.937Z,26.00
2018-08-06T03:41:29.644Z,26.10
2018-08-06T03:43:59.007Z,26.10
2018-08-06T03:46:27.671Z,26.10
2018-08-06T03:48:56.417Z,26.10
2018-08-06T03:51:26.041Z,26.10
2018-08-06T03:53:54.736Z,26.20
2018-08-06T03:56:24.064Z,26.10
2018-08-06T04:01:21.667Z,26.10
2018-08-06T04:03:50.522Z,25.80
2018-08-06T04:06:19.368Z,25.70
2018-08-06T04:08:48.183Z,25.40
2018-08-06T04:11:16.920Z,25.30
2018-08-06T04:13:46.080Z,25.30
2018-08-06T04:16:15.063Z,25.20
2018-08-06T04:18:43.804Z,25.20
2018-08-06T04:21:12.563Z,25.30
2018-08-06T04:23:41.301Z,25.30
2018-08-06T04:26:10.154Z,25.40
2018-08-06T04:28:38.928Z,25.40
2018-08-06T04:31:07.629Z,25.40
2018-08-06T04:33:36.685Z,25.30
2018-08-06T04:36:05.638Z,25.30
2018-08-06T04:38:34.433Z,25.30
2018-08-06T04:43:31.402Z,25.30
2018-08-06T04:46:00.221Z,25.40
2018-08-06T04:48:28.837Z,25.50
2018-08-06T04:50:57.562Z,25.50
2018-08-06T04:53:26.271Z,25.50
2018-08-06T04:55:54.949Z,25.50
2018-08-06T04:58:24.294Z,25.60
2018-08-06T05:00:53.029Z,25.60
2018-08-06T05:03:21.775Z,25.50
2018-08-06T05:05:50.515Z,25.40
2018-08-06T05:08:20.060Z,25.40
2018-08-06T05:10:48.805Z,25.50
2018-08-06T05:13:17.579Z,25.70
2018-08-06T05:15:46.262Z,25.70
2018-08-06T05:18:15.064Z,25.80
2018-08-06T05:20:43.842Z,25.60
2018-08-06T05:23:12.485Z,25.60
2018-08-06T05:25:41.252Z,25.70
2018-08-06T05:28:09.987Z,25.80
2018-08-06T05:30:38.758Z,25.80
2018-08-06T05:33:07.525Z,25.80
2018-08-06T05:35:36.274Z,25.80
2018-08-06T05:38:05.050Z,25.80
2018-08-06T05:40:34.626Z,25.80
2018-08-06T05:43:03.862Z,25.90
2018-08-06T05:45:33.341Z,25.90
2018-08-06T05:48:02.101Z,25.80
2018-08-06T05:50:30.904Z,25.60
2018-08-06T05:52:59.598Z,25.60
2018-08-06T05:55:28.276Z,25.70
2018-08-06T05:57:56.949Z,25.70
2018-08-06T06:00:26.368Z,25.70
2018-08-06T06:02:55.099Z,25.70
2018-08-06T06:05:23.849Z,25.80
2018-08-06T06:07:52.561Z,25.80
2018-08-06T06:10:21.237Z,25.80
2018-08-06T06:12:50.904Z,25.70
2018-08-06T06:15:19.689Z,25.80
2018-08-06T06:17:48.459Z,25.90
2018-08-06T06:20:17.168Z,25.90
2018-08-06T06:22:46.724Z,25.80
2018-08-06T06:25:16.709Z,25.80
2018-08-06T06:27:45.440Z,25.90
2018-08-06T06:30:16.364Z,25.80
2018-08-06T06:32:47.080Z,25.70
2018-08-06T06:35:15.810Z,25.70
2018-08-06T06:37:44.787Z,25.70
2018-08-06T06:40:13.523Z,25.60
2018-08-06T06:42:42.289Z,25.60
2018-08-06T06:45:11.506Z,25.60
2018-08-06T06:47:40.581Z,25.70
2018-08-06T06:50:09.789Z,25.80
2018-08-06T06:52:39.411Z,25.80
2018-08-06T06:55:09.692Z,25.90
2018-08-06T06:57:38.376Z,25.90
2018-08-06T07:00:08.498Z,25.90
2018-08-06T07:02:37.238Z,25.90
2018-08-06T07:05:06.494Z,26.00
2018-08-06T07:07:35.673Z,26.20
2018-08-06T07:12:33.439Z,26.10
2018-08-06T07:17:30.644Z,26.10
2018-08-06T07:20:03.728Z,26.20
2018-08-06T07:22:33.276Z,26.30
2018-08-06T07:25:02.041Z,26.30
2018-08-06T07:27:30.710Z,26.30
2018-08-06T07:29:59.499Z,26.30
2018-08-06T07:32:28.257Z,26.50
2018-08-06T07:37:26.111Z,26.30
2018-08-06T07:39:54.942Z,26.40
2018-08-06T07:42:24.105Z,26.50
2018-08-06T07:44:52.939Z,26.40
2018-08-06T07:47:21.945Z,26.40
2018-08-06T07:49:50.933Z,26.40
2018-08-06T07:52:19.553Z,26.30
2018-08-06T07:54:48.209Z,26.30
2018-08-06T07:57:16.981Z,26.40
2018-08-06T07:59:46.415Z,26.30
2018-08-06T08:02:15.129Z,26.30
2018-08-06T08:04:43.919Z,26.30
2018-08-06T08:07:12.749Z,26.50
2018-08-06T08:09:41.484Z,26.60
2018-08-06T08:12:10.267Z,26.70
2018-08-06T08:14:39.067Z,26.70
2018-08-06T08:17:07.778Z,26.60
2018-08-06T08:24:33.357Z,26.60
2018-08-06T08:27:02.142Z,26.80
2018-08-06T08:29:30.927Z,26.90
2018-08-06T08:31:59.584Z,26.90
2018-08-06T08:34:28.315Z,26.90
2018-08-06T08:39:25.969Z,26.90
2018-08-06T08:41:54.802Z,27.00
2018-08-06T08:44:23.570Z,27.10
2018-08-06T08:46:52.912Z,27.20
2018-08-06T08:49:22.229Z,27.20
2018-08-06T08:51:50.984Z,27.10
2018-08-06T08:54:19.737Z,27.30
2018-08-06T08:56:48.505Z,27.40
2018-08-06T08:59:17.281Z,27.40
2018-08-06T09:01:46.086Z,27.40
2018-08-06T09:04:15.043Z,27.40
2018-08-06T09:06:44.038Z,27.30
2018-08-06T09:09:13.500Z,27.10
2018-08-06T09:11:42.702Z,27.10
2018-08-06T09:14:12.290Z,27.30
2018-08-06T09:19:09.345Z,27.50
2018-08-06T09:21:38.036Z,27.60
2018-08-06T09:24:13.592Z,27.60
2018-08-06T09:26:42.338Z,27.70
2018-08-06T09:29:11.027Z,27.80
2018-08-06T09:31:39.684Z,28.00
2018-08-06T09:34:08.677Z,28.10
2018-08-06T09:36:37.357Z,28.20
2018-08-06T09:39:09.644Z,28.20
2018-08-06T09:41:38.317Z,28.30
2018-08-06T09:44:07.985Z,28.40
2018-08-06T09:46:37.796Z,28.50
2018-08-06T09:49:07.641Z,28.70
2018-08-06T09:51:36.433Z,28.70
2018-08-06T09:54:05.200Z,28.80
2018-08-06T10:01:35.748Z,28.80
2018-08-06T10:04:04.557Z,28.70
2018-08-06T10:06:33.882Z,28.80
2018-08-06T10:09:02.493Z,29.00
2018-08-06T10:11:31.222Z,28.90
2018-08-06T10:13:59.905Z,28.70
2018-08-06T10:16:28.608Z,28.60
2018-08-06T10:18:57.429Z,28.60
2018-08-06T10:21:30.301Z,28.80
2018-08-06T10:24:03.630Z,28.90
2018-08-06T10:26:33.168Z,28.90
2018-08-06T10:29:03.112Z,29.00
2018-08-06T10:31:31.961Z,29.20
2018-08-06T10:34:01.055Z,29.20
2018-08-06T10:36:30.622Z,29.30
2018-08-06T10:38:59.367Z,29.20
2018-08-06T10:41:28.100Z,29.30
2018-08-06T10:43:56.841Z,29.40
2018-08-06T10:46:29.872Z,29.50
2018-08-06T10:48:58.604Z,29.40
2018-08-06T10:51:27.369Z,29.60
2018-08-06T10:53:58.693Z,29.70
2018-08-06T10:58:55.774Z,30.00
2018-08-06T11:01:24.818Z,30.20
2018-08-06T11:03:53.544Z,30.30
2018-08-06T11:06:22.242Z,30.40
2018-08-06T11:08:50.998Z,30.40
2018-08-06T11:11:19.688Z,30.30
2018-08-06T11:13:48.436Z,30.30
2018-08-06T11:16:17.098Z,30.10
2018-08-06T11:21:14.170Z,30.20
2018-08-06T11:23:42.881Z,30.30
2018-08-06T11:26:11.574Z,30.50
2018-08-06T11:28:40.292Z,30.70
2018-08-06T11:31:13.732Z,30.80
2018-08-06T11:33:42.452Z,30.90
2018-08-06T11:36:11.133Z,30.90
2018-08-06T11:38:39.811Z,31.00
2018-08-06T11:41:08.600Z,31.10
2018-08-06T11:43:37.215Z,31.10
2018-08-06T11:46:05.939Z,31.20
2018-08-06T11:48:34.863Z,31.30
2018-08-06T11:51:04.400Z,31.30
2018-08-06T11:53:33.069Z,31.40
2018-08-06T11:56:01.753Z,31.50
2018-08-06T11:58:30.425Z,31.60
2018-08-06T12:00:59.645Z,31.70
2018-08-06T12:03:32.427Z,31.80
2018-08-06T12:06:02.088Z,31.80
2018-08-06T12:10:59.259Z,31.90
2018-08-06T12:13:27.983Z,31.90
2018-08-06T12:15:56.733Z,31.90
2018-08-06T12:18:30.215Z,32.00
2018-08-06T12:20:59.487Z,31.90
2018-08-06T12:25:56.659Z,31.90
2018-08-06T12:28:25.970Z,31.70
2018-08-06T12:30:54.652Z,31.70
2018-08-06T12:33:25.150Z,31.60
2018-08-06T12:35:54.104Z,31.70
2018-08-06T12:38:23.592Z,31.80
2018-08-06T12:43:21.521Z,32.00
2018-08-06T12:45:50.218Z,32.10
2018-08-06T12:48:24.417Z,32.20
2018-08-06T12:50:53.709Z,31.90
2018-08-06T12:53:23.021Z,31.70
2018-08-06T12:55:51.999Z,31.90
2018-08-06T13:00:49.823Z,31.90
2018-08-06T13:03:18.504Z,32.10
2018-08-06T13:05:47.221Z,32.20
2018-08-06T13:08:16.861Z,32.30
2018-08-06T13:10:45.536Z,32.20
2018-08-06T13:15:42.539Z,32.20
2018-08-06T13:18:11.605Z,32.20
2018-08-06T13:20:40.283Z,32.30
2018-08-06T13:23:09.000Z,32.20
2018-08-06T13:25:37.740Z,32.10
2018-08-06T13:28:06.493Z,32.20
2018-08-06T13:30:35.168Z,32.40
2018-08-06T13:35:32.150Z,32.20
2018-08-06T13:38:00.860Z,32.20
2018-08-06T13:40:29.606Z,32.40
2018-08-06T13:42:58.313Z,32.70
2018-08-06T13:45:27.203Z,33.00
2018-08-06T13:47:55.876Z,33.20
2018-08-06T13:50:24.886Z,33.40
2018-08-06T13:52:53.624Z,33.40
2018-08-06T13:55:22.319Z,33.40
2018-08-06T13:57:51.041Z,32.90
2018-08-06T14:00:20.100Z,32.60
2018-08-06T14:02:48.768Z,32.60
2018-08-06T14:05:18.347Z,32.80
2018-08-06T14:07:48.308Z,33.00
2018-08-06T14:10:17.408Z,33.10
2018-08-06T14:12:46.195Z,32.90
2018-08-06T14:15:15.041Z,33.20
2018-08-06T14:17:44.172Z,33.40
2018-08-06T14:20:14.601Z,33.40
2018-08-06T14:27:40.697Z,33.20
2018-08-06T14:30:12.846Z,33.50
2018-08-06T14:32:42.033Z,33.70
2018-08-06T14:35:10.800Z,33.90
2018-08-06T14:37:39.475Z,34.10
2018-08-06T14:40:10.487Z,34.20
2018-08-06T14:42:40.197Z,34.20
2018-08-06T14:45:09.783Z,34.20
2018-08-06T14:47:38.506Z,34.20
2018-08-06T14:50:08.644Z,33.90
2018-08-06T14:52:37.470Z,33.80
2018-08-06T14:55:06.270Z,33.90
2018-08-06T14:57:39.018Z,34.00
2018-08-06T15:00:24.090Z,33.90
2018-08-06T15:02:53.725Z,34.10
2018-08-06T15:05:23.155Z,34.10
2018-08-06T15:07:51.825Z,34.40
2018-08-06T15:12:49.003Z,34.20
2018-08-06T15:20:17.084Z,33.80
2018-08-06T15:22:45.945Z,34.00
2018-08-06T15:25:19.212Z,34.30
2018-08-06T15:27:47.876Z,34.50
2018-08-06T15:30:16.636Z,34.60
2018-08-06T15:32:45.396Z,34.60
2018-08-06T15:35:14.548Z,34.60
2018-08-06T15:37:44.057Z,34.80
2018-08-06T15:40:18.501Z,35.00
2018-08-06T15:42:47.299Z,35.10
2018-08-06T15:45:16.057Z,35.10
2018-08-06T15:47:45.630Z,35.10
2018-08-06T15:50:17.366Z,35.20
2018-08-06T15:52:46.155Z,35.10
2018-08-06T15:55:14.886Z,35.10
2018-08-06T15:57:43.676Z,34.80
2018-08-06T16:00:14.819Z,34.70
2018-08-06T16:02:43.875Z,34.50
2018-08-06T16:05:12.771Z,34.50
2018-08-06T16:07:41.456Z,34.50
2018-08-06T16:10:11.299Z,34.60
2018-08-06T16:15:10.232Z,34.80
2018-08-06T16:17:39.633Z,34.90
2018-08-06T16:20:10.324Z,34.90
2018-08-06T16:22:39.228Z,35.00
2018-08-06T16:27:37.063Z,34.90
2018-08-06T16:30:09.281Z,35.10
2018-08-06T16:32:37.988Z,35.30
2018-08-06T16:35:06.723Z,35.50
2018-08-06T16:37:35.444Z,35.80
2018-08-06T16:40:04.769Z,35.90
2018-08-06T16:42:33.471Z,36.10
2018-08-06T16:45:02.168Z,36.30
2018-08-06T16:47:30.930Z,36.40
2018-08-06T16:49:59.613Z,36.60
2018-08-06T16:52:28.375Z,36.70
2018-08-06T16:54:56.993Z,36.70
2018-08-06T16:57:30.247Z,36.80
2018-08-06T16:59:58.899Z,36.90
2018-08-06T17:02:27.608Z,37.00
2018-08-06T17:04:56.257Z,36.90
2018-08-06T17:07:25.972Z,36.80
2018-08-06T17:09:54.659Z,36.70
2018-08-06T17:12:23.352Z,36.60
2018-08-06T17:14:52.001Z,36.50
2018-08-06T17:19:49.248Z,36.40
2018-08-06T17:22:18.005Z,36.30
2018-08-06T17:24:46.649Z,36.30
2018-08-06T17:29:43.758Z,36.20
2018-08-06T17:32:12.544Z,36.10
2018-08-06T17:34:41.230Z,36.00
2018-08-06T17:37:09.911Z,35.90
2018-08-06T17:39:39.257Z,35.70
2018-08-06T17:42:07.977Z,35.50
2018-08-06T17:44:36.688Z,35.30
2018-08-06T17:47:05.457Z,35.10
2018-08-06T17:49:34.128Z,34.80
2018-08-06T17:52:02.807Z,34.60
2018-08-06T17:54:31.456Z,34.50
2018-08-06T17:57:02.180Z,34.30
2018-08-06T17:59:30.865Z,34.10
2018-08-06T18:01:59.641Z,33.90
2018-08-06T18:04:28.268Z,33.80
2018-08-06T18:06:56.989Z,33.60
2018-08-06T18:09:26.129Z,33.50
2018-08-06T18:11:54.793Z,33.40
2018-08-06T18:14:24.352Z,33.30
2018-08-06T18:16:53.707Z,33.10
2018-08-06T18:19:22.372Z,33.00
2018-08-06T18:21:51.073Z,32.90
2018-08-06T18:24:19.725Z,32.80
2018-08-06T18:26:48.415Z,32.70
2018-08-06T18:31:46.180Z,32.50
2018-08-06T18:34:14.937Z,32.40
2018-08-06T18:36:43.564Z,32.30
2018-08-06T18:39:12.851Z,32.30
2018-08-06T18:41:41.780Z,32.20
2018-08-06T18:44:10.496Z,32.10
2018-08-06T18:46:39.945Z,32.00
2018-08-06T18:49:08.708Z,31.90
2018-08-06T18:51:37.373Z,31.90
2018-08-06T18:54:06.299Z,31.80
2018-08-06T18:56:34.948Z,31.70
2018-08-06T18:59:03.675Z,31.70
2018-08-06T19:01:32.409Z,31.70
2018-08-06T19:04:01.070Z,31.60
2018-08-06T19:08:58.269Z,31.50
2018-08-06T19:14:01.225Z,31.40
2018-08-06T19:16:29.897Z,31.40
2018-08-06T19:19:03.953Z,31.30
2018-08-06T19:24:06.283Z,31.20
2018-08-06T19:26:34.944Z,31.10
2018-08-06T19:29:03.588Z,31.10
2018-08-06T19:31:34.521Z,31.00
2018-08-06T19:34:03.256Z,31.00
2018-08-06T19:38:38.974Z,31.00
2018-08-06T19:41:07.746Z,30.90
2018-08-06T19:43:37.254Z,30.80
2018-08-06T19:46:06.608Z,30.70
2018-08-06T19:48:35.487Z,30.70
2018-08-06T19:51:04.348Z,30.70
2018-08-06T19:53:33.043Z,30.60
2018-08-06T19:56:07.074Z,30.60
2018-08-06T19:58:35.790Z,30.60
2018-08-06T20:01:04.518Z,30.60
2018-08-06T20:03:33.275Z,30.50
2018-08-06T20:06:01.993Z,30.50
2018-08-06T20:08:30.749Z,30.50
2018-08-06T20:10:59.433Z,30.40
2018-08-06T20:13:28.120Z,30.40
2018-08-06T20:15:56.761Z,30.40
2018-08-06T20:18:26.208Z,30.30
2018-08-06T20:20:54.885Z,30.30
2018-08-06T20:23:23.696Z,30.30
2018-08-06T20:25:52.437Z,30.30
2018-08-06T20:28:21.117Z,30.30
2018-08-06T20:30:49.840Z,30.20
2018-08-06T20:33:18.509Z,30.20
2018-08-06T20:35:47.228Z,30.10
2018-08-06T20:38:15.925Z,30.00
2018-08-06T20:40:44.645Z,29.90
2018-08-06T20:43:13.365Z,29.90
2018-08-06T20:45:42.077Z,29.80
2018-08-06T20:48:11.079Z,29.80
2018-08-06T20:50:39.741Z,29.90
2018-08-06T20:53:08.432Z,29.90
2018-08-06T20:55:37.129Z,29.90
2018-08-06T20:58:06.361Z,29.90
2018-08-06T21:00:35.283Z,29.90
2018-08-06T21:08:00.706Z,29.90
2018-08-06T21:10:29.520Z,29.80
2018-08-06T21:12:58.221Z,29.80
2018-08-06T21:15:27.553Z,29.80
2018-08-06T21:17:56.233Z,29.80
2018-08-06T21:20:25.654Z,29.70
2018-08-06T21:22:54.384Z,29.70
2018-08-06T21:30:21.140Z,29.70
2018-08-06T21:32:52.308Z,29.60
2018-08-06T21:37:51.402Z,29.50
2018-08-06T21:40:20.821Z,29.50
2018-08-06T21:42:50.017Z,29.50
2018-08-06T21:45:18.811Z,29.40
2018-08-06T21:47:47.675Z,29.40
2018-08-06T21:50:16.575Z,29.40
2018-08-06T21:52:45.350Z,29.40
2018-08-06T21:55:14.102Z,29.40
2018-08-06T21:57:42.856Z,29.30
2018-08-06T22:00:15.429Z,29.30
2018-08-06T22:02:44.153Z,29.30
2018-08-06T22:05:12.912Z,29.30
2018-08-06T22:07:41.605Z,29.20
2018-08-06T22:12:38.752Z,29.20
2018-08-06T22:15:07.485Z,29.20
2018-08-06T22:17:36.190Z,29.10
2018-08-06T22:20:05.356Z,29.00
2018-08-06T22:22:34.040Z,28.90
2018-08-06T22:27:31.148Z,28.90
2018-08-06T22:29:59.894Z,28.80
2018-08-06T22:32:28.708Z,28.80
2018-08-06T22:34:57.564Z,28.80
2018-08-06T22:37:27.388Z,28.70
2018-08-06T22:39:56.046Z,28.80
2018-08-06T22:42:25.379Z,28.60
2018-08-06T22:44:54.082Z,28.50
2018-08-06T22:47:22.767Z,28.60
2018-08-06T22:49:51.458Z,28.60
2018-08-06T22:52:20.156Z,28.40
2018-08-06T22:54:48.852Z,28.40
2018-08-06T22:57:17.536Z,28.40
2018-08-06T22:59:46.241Z,28.40
2018-08-06T23:02:14.871Z,28.30
2018-08-06T23:07:11.999Z,28.10
2018-08-06T23:09:40.764Z,28.20
2018-08-06T23:12:09.480Z,28.20
2018-08-06T23:14:38.188Z,28.20
2018-08-06T23:19:36.252Z,28.20
2018-08-06T23:22:05.359Z,28.30
2018-08-06T23:24:34.076Z,28.30
2018-08-06T23:27:02.789Z,28.20
2018-08-06T23:29:31.503Z,28.20
2018-08-06T23:32:00.222Z,28.20
2018-08-06T23:34:28.907Z,28.20
2018-08-06T23:36:57.580Z,28.20
2018-08-06T23:39:26.903Z,28.20
2018-08-06T23:41:55.593Z,28.20
2018-08-06T23:46:52.629Z,28.00
2018-08-06T23:49:21.328Z,28.00
2018-08-06T23:51:50.045Z,27.90
2018-08-06T23:54:18.692Z,27.90
2018-08-06T23:56:47.378Z,27.90
2018-08-06T23:59:16.125Z,27.90
